Impacts METAR Board INFO
IDs:

KMDW - Chicago/Midway Intl, IL, US

Updated at: 1943 UTC 17 Feb 2018
Potential Impact None Slight Moderate High
Time17/07Z 17/08Z 17/09Z 17/10Z 17/11Z 17/12Z 17/13Z 17/14Z 17/15Z 17/16Z 17/17Z 17/18Z 17/19Z
VIS10 10 10 10 10 10 10 10 10 10 10 10 10
CIG-- -- -- -- 250 220 200 180 180 140 100 95 95
CoverSCTSCTSCTSCTBKNOVCOVCOVCOVCOVCOVCOVCOVC
FltCatVFRVFRVFRVFRVFRVFRVFRVFRVFRVFRVFRVFRVFR
WX--------------------------
WDir250270200190200180190170200170200210210
WSpd5 4 3 3 4 5 8 5 7 6 8 10 10
WGst-- -- -- -- -- -- -- -- -- -- -- -- --
Raw hourly METARs
KMDW 170653Z 25005KT 10SM SCT250 M07/M12 A3025 RMK AO2 SLP258 T10721117
KMDW 170753Z 27004KT 10SM SCT250 M08/M12 A3024 RMK AO2 SLP255 T10781117
KMDW 170853Z 20003KT 10SM SCT250 M08/M12 A3020 RMK AO2 SLP241 T10831122 58019
KMDW 170953Z 19003KT 10SM SCT250 M08/M12 A3017 RMK AO2 SLP232 T10831117
KMDW 171053Z 20004KT 10SM BKN250 M08/M12 A3016 RMK AO2 SLP230 T10831122
KMDW 171153Z 18005KT 10SM OVC220 M08/M13 A3016 RMK AO2 SLP227 T10781128 11067 21083 56015
KMDW 171253Z 19008KT 160V240 10SM OVC200 M07/M13 A3013 RMK AO2 SLP217 T10671128
KMDW 171353Z 17005KT 10SM OVC180 M06/M12 A3010 RMK AO2 SLP208 T10611117
KMDW 171453Z 20007KT 10SM BKN180 OVC250 M05/M09 A3010 RMK AO2 SLP207 T10501089 56020
KMDW 171553Z 17006KT 10SM BKN140 OVC250 M03/M07 A3007 RMK AO2 SLP197 T10331072
KMDW 171653Z 20008KT 10SM BKN100 OVC250 M01/M04 A3005 RMK AO2 SLP191 T10061044
KMDW 171753Z COR 21010KT 10SM BKN095 OVC250 01/M04 A3001 RMK AO2 SLP176 T00111039 10011 21078 58029
KMDW 171853Z 21010KT 10SM BKN095 OVC250 02/M03 A2997 RMK AO2 SLP164 T00171033